createdAt,value
2022-10-23T00:00:41.059Z,99997.84
2022-10-23T00:03:12.336Z,99996.88
2022-10-23T00:05:47.580Z,99999.88
2022-10-23T00:08:16.020Z,100007.84
2022-10-23T00:10:45.792Z,100013.31
2022-10-23T00:13:14.270Z,99999.88
2022-10-23T00:15:44.057Z,99997.38
2022-10-23T00:18:14.327Z,99990.44
2022-10-23T00:20:42.784Z,99996.88
2022-10-23T00:23:12.225Z,99995.34
2022-10-23T00:25:53.150Z,99998.38
2022-10-23T00:28:21.913Z,100000.03
2022-10-23T00:30:50.303Z,100001.03
2022-10-23T00:33:20.669Z,99996.41
2022-10-23T00:35:49.112Z,99999.41
2022-10-23T00:38:20.660Z,99995.25
2022-10-23T00:43:28.398Z,99994.41
2022-10-23T00:45:58.187Z,100005.19
2022-10-23T00:48:30.659Z,100003.00
2022-10-23T00:50:59.610Z,100002.47
2022-10-23T00:53:28.716Z,100002.47
2022-10-23T00:56:00.599Z,100017.09
2022-10-23T00:58:29.956Z,100016.81
2022-10-23T01:00:59.580Z,100016.28
2022-10-23T01:03:31.127Z,100012.50
2022-10-23T01:06:09.624Z,100003.38
2022-10-23T01:08:47.437Z,100002.53
2022-10-23T01:11:22.123Z,99998.38
2022-10-23T01:13:59.106Z,100005.34
2022-10-23T01:16:36.034Z,100004.66
2022-10-23T01:19:15.535Z,100006.47
2022-10-23T01:21:55.808Z,100009.00
2022-10-23T01:24:48.149Z,100006.47
2022-10-23T01:27:24.695Z,100007.66
2022-10-23T01:30:04.127Z,99998.84
2022-10-23T01:32:41.518Z,99996.50
2022-10-23T01:35:16.126Z,99988.69
2022-10-23T01:37:55.322Z,99981.56
2022-10-23T01:40:31.110Z,99982.22
2022-10-23T01:43:06.905Z,99971.91
2022-10-23T01:45:41.416Z,99972.09
2022-10-23T01:48:14.663Z,99972.09
2022-10-23T01:50:47.331Z,99973.59
2022-10-23T01:53:15.902Z,99963.47
2022-10-23T01:55:46.299Z,99956.63
2022-10-23T01:58:17.499Z,99951.63
2022-10-23T02:00:48.627Z,99948.31
2022-10-23T02:03:19.270Z,99942.31
2022-10-23T02:05:47.653Z,99939.97
2022-10-23T02:08:16.222Z,99933.31
2022-10-23T02:10:53.021Z,99930.66
2022-10-23T02:13:29.956Z,99929.13
2022-10-23T02:16:08.050Z,99925.34
2022-10-23T02:18:46.859Z,99929.00
2022-10-23T02:21:20.319Z,99926.19
2022-10-23T02:23:56.308Z,99925.34
2022-10-23T02:26:31.040Z,99928.31
2022-10-23T02:29:06.512Z,99930.00
2022-10-23T02:31:35.667Z,99923.00
2022-10-23T02:34:06.363Z,99923.69
2022-10-23T02:36:35.066Z,99919.38
2022-10-23T02:39:06.102Z,99916.31
2022-10-23T02:41:43.180Z,99916.19
2022-10-23T02:44:26.641Z,99916.03
2022-10-23T02:47:05.931Z,99913.22
2022-10-23T02:49:43.303Z,99908.78
2022-10-23T02:52:19.049Z,99894.50
2022-10-23T02:55:10.032Z,99883.91
2022-10-23T02:57:46.222Z,99882.25
2022-10-23T03:00:19.018Z,99877.59
2022-10-23T03:02:51.537Z,99872.00
2022-10-23T03:05:23.758Z,99871.53
2022-10-23T03:07:54.046Z,99868.03
2022-10-23T03:10:22.885Z,99868.03
2022-10-23T03:12:51.362Z,99855.91
2022-10-23T03:15:21.586Z,99847.13
2022-10-23T03:17:50.038Z,99855.06
2022-10-23T03:20:18.671Z,99853.25
2022-10-23T03:22:47.290Z,99843.63
2022-10-23T03:25:16.479Z,99843.31
2022-10-23T03:27:44.781Z,99855.25
2022-10-23T03:30:13.966Z,99862.75
2022-10-23T03:32:44.458Z,99852.97
2022-10-23T03:35:13.305Z,99846.69
2022-10-23T03:37:42.396Z,99847.81
2022-10-23T03:40:12.965Z,99843.53
2022-10-23T03:42:41.504Z,99848.81
2022-10-23T03:45:11.184Z,99834.72
2022-10-23T03:47:41.617Z,99833.06
2022-10-23T03:50:15.113Z,99824.25
2022-10-23T03:52:43.711Z,99814.81
2022-10-23T03:55:13.375Z,99810.31
2022-10-23T03:57:41.751Z,99804.19
2022-10-23T04:00:11.480Z,99800.72
2022-10-23T04:02:39.997Z,99790.09
2022-10-23T04:05:09.006Z,99784.94
2022-10-23T04:07:39.333Z,99771.53
2022-10-23T04:10:08.990Z,99774.31
2022-10-23T04:12:37.317Z,99770.69
2022-10-23T04:15:07.797Z,99760.75
2022-10-23T04:17:36.445Z,99766.88
2022-10-23T04:20:05.376Z,99771.19
2022-10-23T04:22:34.460Z,99763.22
2022-10-23T04:25:04.413Z,99753.47
2022-10-23T04:27:34.664Z,99748.31
2022-10-23T04:30:03.943Z,99763.22
2022-10-23T04:32:32.781Z,99755.97
2022-10-23T04:35:01.333Z,99755.28
2022-10-23T04:37:30.084Z,99755.47
2022-10-23T04:39:59.271Z,99738.03
2022-10-23T04:42:29.098Z,99734.56
2022-10-23T04:44:57.576Z,99735.56
2022-10-23T04:47:26.564Z,99728.59
2022-10-23T04:49:54.926Z,99726.94
2022-10-23T04:52:23.269Z,99710.84
2022-10-23T04:54:51.607Z,99708.84
2022-10-23T04:57:19.932Z,99709.19
2022-10-23T04:59:50.464Z,99705.53
2022-10-23T05:02:18.983Z,99711.03
2022-10-23T05:04:47.433Z,99707.84
2022-10-23T05:07:16.015Z,99701.38
2022-10-23T05:09:44.560Z,99686.09
2022-10-23T05:12:12.951Z,99681.81
2022-10-23T05:14:41.715Z,99671.19
2022-10-23T05:17:25.614Z,99676.50
2022-10-23T05:19:56.502Z,99678.63
2022-10-23T05:22:28.906Z,99673.84
2022-10-23T05:24:57.979Z,99674.50
2022-10-23T05:27:26.647Z,99674.66
2022-10-23T05:29:55.275Z,99670.03
2022-10-23T05:32:27.441Z,99664.88
2022-10-23T05:34:56.663Z,99659.28
2022-10-23T05:37:25.401Z,99652.13
2022-10-23T05:39:53.902Z,99651.31
2022-10-23T05:42:22.272Z,99649.47
2022-10-23T05:44:50.719Z,99653.78
2022-10-23T05:47:19.456Z,99653.47
2022-10-23T05:49:49.577Z,99650.97
2022-10-23T05:52:20.032Z,99653.78
2022-10-23T05:54:48.755Z,99654.44
2022-10-23T05:59:50.724Z,99655.31
2022-10-23T06:02:19.119Z,99650.81
2022-10-23T06:04:49.822Z,99643.19
2022-10-23T06:07:18.556Z,99632.56
2022-10-23T06:09:47.201Z,99625.75
2022-10-23T06:12:15.721Z,99625.09
2022-10-23T06:14:44.277Z,99631.41
2022-10-23T06:17:13.434Z,99629.75
2022-10-23T06:19:41.984Z,99621.63
2022-10-23T06:22:11.896Z,99612.34
2022-10-23T06:24:41.946Z,99615.31
2022-10-23T06:27:28.898Z,99612.47
2022-10-23T06:29:57.648Z,99596.41
2022-10-23T06:32:26.634Z,99595.59
2022-10-23T06:34:55.623Z,99597.25
2022-10-23T06:37:26.213Z,99591.25
2022-10-23T06:39:54.692Z,99588.78
2022-10-23T06:42:23.372Z,99586.13
2022-10-23T06:44:51.812Z,99572.84
2022-10-23T06:47:20.858Z,99566.91
2022-10-23T06:49:49.845Z,99560.09
2022-10-23T06:52:41.745Z,99572.84
2022-10-23T06:55:09.928Z,99562.41
2022-10-23T06:57:39.670Z,99552.13
2022-10-23T07:00:09.962Z,99557.44
2022-10-23T07:02:38.649Z,99557.13
2022-10-23T07:05:11.310Z,99551.81
2022-10-23T07:07:42.189Z,99552.31
2022-10-23T07:12:42.835Z,99547.84
2022-10-23T07:15:11.634Z,99554.13
2022-10-23T07:17:40.304Z,99555.63
2022-10-23T07:20:09.793Z,99538.19
2022-10-23T07:22:38.814Z,99540.72
2022-10-23T07:25:08.663Z,99539.06
2022-10-23T07:27:41.236Z,99534.56
2022-10-23T07:30:11.205Z,99539.06
2022-10-23T07:32:39.898Z,99533.56
2022-10-23T07:35:09.694Z,99529.91
2022-10-23T07:37:38.878Z,99532.25
2022-10-23T07:40:09.173Z,99530.59
2022-10-23T07:42:39.546Z,99528.78
2022-10-23T07:45:09.476Z,99530.59
2022-10-23T07:47:38.717Z,99517.97
2022-10-23T07:50:09.147Z,99507.38
2022-10-23T07:52:38.448Z,99504.22
2022-10-23T07:55:07.596Z,99496.44
2022-10-23T07:57:36.321Z,99496.44
2022-10-23T08:00:07.698Z,99490.81
2022-10-23T08:02:38.292Z,99486.66
2022-10-23T08:05:07.795Z,99494.28
2022-10-23T08:07:36.425Z,99487.78
2022-10-23T08:10:05.378Z,99482.34
2022-10-23T08:12:33.922Z,99478.84
2022-10-23T08:15:02.362Z,99488.13
2022-10-23T08:17:32.471Z,99468.56
2022-10-23T08:20:01.027Z,99469.41
2022-10-23T08:22:29.608Z,99470.06
2022-10-23T08:24:58.202Z,99459.94
2022-10-23T08:27:33.224Z,99462.59
2022-10-23T08:30:01.709Z,99461.75
2022-10-23T08:32:33.167Z,99465.75
2022-10-23T08:35:01.789Z,99476.69
2022-10-23T08:37:30.027Z,99463.28
2022-10-23T08:39:58.360Z,99453.66
2022-10-23T08:42:29.759Z,99450.19
2022-10-23T08:45:06.820Z,99450.19
2022-10-23T08:47:42.014Z,99445.03
2022-10-23T08:50:16.324Z,99443.38
2022-10-23T08:52:52.431Z,99434.09
2022-10-23T08:55:27.869Z,99442.72
2022-10-23T08:58:03.341Z,99440.22
2022-10-23T09:00:32.156Z,99439.06
2022-10-23T09:03:04.446Z,99450.81
2022-10-23T09:05:38.486Z,99441.22
2022-10-23T09:08:27.115Z,99445.53
2022-10-23T09:11:04.906Z,99443.53
2022-10-23T09:13:58.693Z,99440.56
2022-10-23T09:16:42.104Z,99444.88
2022-10-23T09:19:18.525Z,99432.94
2022-10-23T09:21:51.023Z,99433.94
2022-10-23T09:24:21.139Z,99439.75
2022-10-23T09:26:52.240Z,99436.91
2022-10-23T09:29:26.279Z,99434.56
2022-10-23T09:31:57.036Z,99433.75
2022-10-23T09:34:28.687Z,99430.97
2022-10-23T09:36:59.270Z,99433.25
2022-10-23T09:39:31.148Z,99426.97
2022-10-23T09:42:02.540Z,99432.09
2022-10-23T09:44:33.103Z,99430.44
2022-10-23T09:47:11.449Z,99426.63
2022-10-23T09:49:48.714Z,99437.06
2022-10-23T09:52:26.185Z,99423.97
2022-10-23T09:54:58.665Z,99427.28
2022-10-23T09:57:32.938Z,99418.47
2022-10-23T10:00:06.049Z,99413.63
2022-10-23T10:02:36.964Z,99429.72
2022-10-23T10:05:25.454Z,99424.72
2022-10-23T10:08:17.384Z,99410.88
2022-10-23T10:10:49.456Z,99404.88
2022-10-23T10:13:34.338Z,99412.28
2022-10-23T10:16:13.976Z,99404.19
2022-10-23T10:18:49.484Z,99409.00
2022-10-23T10:21:26.728Z,99407.81
2022-10-23T10:24:02.434Z,99407.75
2022-10-23T10:26:40.137Z,99409.78
2022-10-23T10:29:25.872Z,99413.97
2022-10-23T10:32:06.517Z,99414.25
2022-10-23T10:34:44.530Z,99399.97
2022-10-23T10:37:27.817Z,99400.78
2022-10-23T10:40:03.632Z,99391.16
2022-10-23T10:42:47.817Z,99383.50
2022-10-23T10:45:27.778Z,99384.50
2022-10-23T10:48:11.573Z,99389.63
2022-10-23T10:50:48.375Z,99384.72
2022-10-23T10:53:34.489Z,99378.88
2022-10-23T10:56:07.055Z,99378.06
2022-10-23T10:58:41.631Z,99372.06
2022-10-23T11:01:19.117Z,99368.97
2022-10-23T11:03:54.454Z,99368.50
2022-10-23T11:06:28.288Z,99368.59
2022-10-23T11:09:19.282Z,99372.94
2022-10-23T11:11:50.851Z,99373.66
2022-10-23T11:14:23.905Z,99374.00
2022-10-23T11:16:54.846Z,99361.75
2022-10-23T11:19:28.281Z,99375.81
2022-10-23T11:22:01.796Z,99378.81
2022-10-23T11:24:58.903Z,99372.06
2022-10-23T11:27:48.889Z,99364.38
2022-10-23T11:30:26.254Z,99350.41
2022-10-23T11:33:31.203Z,99323.59
2022-10-23T11:36:08.537Z,99304.75
2022-10-23T11:38:40.398Z,99265.50
2022-10-23T11:41:25.303Z,99254.78
2022-10-23T11:43:57.947Z,99220.00
2022-10-23T11:46:33.051Z,99203.88
2022-10-23T11:49:03.365Z,99187.31
2022-10-23T11:51:40.742Z,99167.84
2022-10-23T11:54:27.463Z,99171.56
2022-10-23T11:57:16.023Z,99179.28
2022-10-23T12:00:03.850Z,99175.63
2022-10-23T12:02:37.724Z,99164.16
2022-10-23T12:05:32.160Z,99150.53
2022-10-23T12:08:21.759Z,99146.06
2022-10-23T12:10:53.450Z,99132.09
2022-10-23T12:13:44.222Z,99122.94
2022-10-23T12:16:12.675Z,99115.66
2022-10-23T12:18:54.826Z,99091.81
2022-10-23T12:21:28.689Z,99090.47
2022-10-23T12:24:39.449Z,99094.25
2022-10-23T12:27:20.239Z,99085.44
2022-10-23T12:30:03.097Z,99085.00
2022-10-23T12:32:52.796Z,99076.16
2022-10-23T12:35:40.379Z,99083.28
2022-10-23T12:38:16.688Z,99090.00
2022-10-23T12:40:47.789Z,99090.22
2022-10-23T12:43:28.463Z,99086.53
2022-10-23T12:46:09.201Z,99087.50
2022-10-23T12:48:37.603Z,99079.91
2022-10-23T12:51:06.206Z,99074.44
2022-10-23T12:53:35.358Z,99066.09
2022-10-23T12:56:06.877Z,99062.84
2022-10-23T12:58:37.626Z,99054.88
2022-10-23T13:01:09.355Z,99060.44
2022-10-23T13:03:40.221Z,99044.50
2022-10-23T13:06:17.503Z,99038.06
2022-10-23T13:08:49.175Z,99045.44
2022-10-23T13:11:21.524Z,99043.75
2022-10-23T13:13:52.488Z,99032.50
2022-10-23T13:16:25.447Z,99035.97
2022-10-23T13:18:58.104Z,99035.06
2022-10-23T13:21:29.945Z,99028.50
2022-10-23T13:23:58.681Z,99024.06
2022-10-23T13:26:34.472Z,99006.38
2022-10-23T13:29:09.446Z,99006.59
2022-10-23T13:31:40.036Z,99005.16
2022-10-23T13:34:19.546Z,99002.47
2022-10-23T13:36:58.049Z,98999.38
2022-10-23T13:39:30.106Z,99001.81
2022-10-23T13:42:02.357Z,99003.00
2022-10-23T13:44:30.963Z,98995.34
2022-10-23T13:47:00.807Z,98987.22
2022-10-23T13:49:29.504Z,98999.38
2022-10-23T13:51:58.346Z,98991.19
2022-10-23T13:56:58.418Z,98981.09
2022-10-23T13:59:26.874Z,98972.66
2022-10-23T14:01:55.359Z,98977.16
2022-10-23T14:04:25.437Z,98970.13
2022-10-23T14:06:58.743Z,98964.41
2022-10-23T14:09:27.594Z,98953.94
2022-10-23T14:11:56.378Z,98953.41
2022-10-23T14:14:24.689Z,98949.91
2022-10-23T14:16:53.638Z,98941.38
2022-10-23T14:19:22.285Z,98945.81
2022-10-23T14:21:52.677Z,98940.91
2022-10-23T14:24:21.272Z,98938.44
2022-10-23T14:26:50.220Z,98938.34
2022-10-23T14:29:23.078Z,98943.59
2022-10-23T14:31:53.212Z,98929.25
2022-10-23T14:34:21.883Z,98937.28
2022-10-23T14:37:04.055Z,98922.22
2022-10-23T14:39:36.858Z,98924.13
2022-10-23T14:42:05.471Z,98929.31
2022-10-23T14:44:33.753Z,98929.22
2022-10-23T14:47:03.671Z,98932.63
2022-10-23T14:49:33.861Z,98937.81
2022-10-23T14:52:03.899Z,98940.53
2022-10-23T14:54:34.985Z,98924.53
2022-10-23T14:57:04.575Z,98930.63
2022-10-23T14:59:33.186Z,98940.56
2022-10-23T15:02:01.552Z,98941.72
2022-10-23T15:04:29.948Z,98937.38
2022-10-23T15:06:58.776Z,98936.31
2022-10-23T15:09:29.580Z,98925.56
2022-10-23T15:11:58.084Z,98927.47
2022-10-23T15:14:26.407Z,98927.09
2022-10-23T15:16:55.032Z,98909.78
2022-10-23T15:19:23.388Z,98921.78
2022-10-23T15:21:52.695Z,98917.72
2022-10-23T15:24:22.663Z,98916.13
2022-10-23T15:26:53.137Z,98914.44
2022-10-23T15:29:23.302Z,98916.72
2022-10-23T15:31:59.030Z,98918.25
2022-10-23T15:34:29.355Z,98914.59
2022-10-23T15:36:59.317Z,98895.94
2022-10-23T15:39:33.974Z,98902.16
2022-10-23T15:42:06.045Z,98900.50
2022-10-23T15:44:37.795Z,98902.97
2022-10-23T15:47:06.552Z,98904.50
2022-10-23T15:49:35.465Z,98908.44
2022-10-23T15:52:04.581Z,98910.47
2022-10-23T15:54:33.420Z,98908.69
2022-10-23T15:57:06.122Z,98907.09
2022-10-23T15:59:35.749Z,98905.00
2022-10-23T16:02:04.729Z,98903.50
2022-10-23T16:04:33.504Z,98911.38
2022-10-23T16:07:01.833Z,98908.53
2022-10-23T16:09:31.174Z,98905.59
2022-10-23T16:11:59.858Z,98912.50
2022-10-23T16:14:29.967Z,98909.63
2022-10-23T16:16:58.699Z,98903.47
2022-10-23T16:19:27.423Z,98907.75
2022-10-23T16:21:57.423Z,98916.75
2022-10-23T16:24:26.209Z,98914.06
2022-10-23T16:26:56.676Z,98926.75
2022-10-23T16:29:26.347Z,98933.03
2022-10-23T16:31:56.858Z,98935.25
2022-10-23T16:34:25.591Z,98936.44
2022-10-23T16:36:54.455Z,98941.88
2022-10-23T16:39:23.909Z,98929.84
2022-10-23T16:41:52.543Z,98943.19
2022-10-23T16:44:21.017Z,98938.81
2022-10-23T16:46:49.322Z,98945.38
2022-10-23T16:49:19.861Z,98941.47
2022-10-23T16:51:48.566Z,98937.84
2022-10-23T16:54:18.208Z,98943.31
2022-10-23T16:56:48.354Z,98940.81
2022-10-23T16:59:18.100Z,98943.56
2022-10-23T17:01:56.622Z,98951.38
2022-10-23T17:04:27.514Z,98953.09
2022-10-23T17:06:56.128Z,98962.25
2022-10-23T17:09:29.894Z,98960.22
2022-10-23T17:11:58.872Z,98969.97
2022-10-23T17:14:29.535Z,98976.00
2022-10-23T17:17:01.306Z,98970.75
2022-10-23T17:19:44.682Z,98980.50
2022-10-23T17:22:14.321Z,98992.53
2022-10-23T17:24:47.465Z,98991.31
2022-10-23T17:27:18.773Z,98989.31
2022-10-23T17:29:48.323Z,98990.44
2022-10-23T17:32:17.228Z,99002.03
2022-10-23T17:34:48.437Z,98999.25
2022-10-23T17:37:17.500Z,98998.53
2022-10-23T17:39:45.883Z,99005.03
2022-10-23T17:42:19.641Z,99003.38
2022-10-23T17:44:48.215Z,99005.41
2022-10-23T17:47:17.022Z,99005.69
2022-10-23T17:49:47.658Z,99004.31
2022-10-23T17:52:17.099Z,99003.31
2022-10-23T17:54:45.590Z,99012.00
2022-10-23T17:57:16.760Z,99006.91
2022-10-23T17:59:45.762Z,99020.50
2022-10-23T18:02:14.839Z,99024.75
2022-10-23T18:04:43.989Z,99032.00
2022-10-23T18:07:14.830Z,99028.50
2022-10-23T18:09:43.948Z,99029.53
2022-10-23T18:12:14.602Z,99032.50
2022-10-23T18:14:44.281Z,99032.09
2022-10-23T18:17:20.803Z,99042.38
2022-10-23T18:19:52.363Z,99031.47
2022-10-23T18:22:32.387Z,99025.13
2022-10-23T18:25:01.559Z,99025.94
2022-10-23T18:27:31.338Z,99030.44
2022-10-23T18:30:00.596Z,99033.91
2022-10-23T18:32:30.399Z,99035.63
2022-10-23T18:34:58.977Z,99040.25
2022-10-23T18:37:31.745Z,99038.06
2022-10-23T18:40:01.766Z,99037.50
2022-10-23T18:42:30.840Z,99044.25
2022-10-23T18:45:02.400Z,99045.59
2022-10-23T18:47:32.084Z,99042.94
2022-10-23T18:50:01.724Z,99045.38
2022-10-23T18:52:32.469Z,99044.94
2022-10-23T18:55:00.984Z,99038.88
2022-10-23T18:57:29.542Z,99046.91
2022-10-23T18:59:59.003Z,99052.31
2022-10-23T19:02:33.667Z,99053.03
2022-10-23T19:05:02.855Z,99057.94
2022-10-23T19:07:50.149Z,99057.59
2022-10-23T19:10:20.788Z,99055.75
2022-10-23T19:12:51.472Z,99055.75
2022-10-23T19:15:19.906Z,99056.41
2022-10-23T19:17:54.688Z,99057.59
2022-10-23T19:23:18.388Z,99064.06
2022-10-23T19:25:48.702Z,99066.16
2022-10-23T19:28:17.822Z,99065.00
2022-10-23T19:30:47.637Z,99067.25
2022-10-23T19:33:20.129Z,99067.97
2022-10-23T19:35:54.653Z,99068.31
2022-10-23T19:38:25.675Z,99072.22
2022-10-23T19:41:01.357Z,99072.69
2022-10-23T19:43:30.086Z,99071.38
2022-10-23T19:46:06.350Z,99065.94
2022-10-23T19:48:38.156Z,99068.13
2022-10-23T19:51:09.460Z,99069.03
2022-10-23T19:53:40.908Z,99068.72
2022-10-23T19:56:10.702Z,99072.88
2022-10-23T19:58:42.043Z,99071.75
2022-10-23T20:01:13.018Z,99070.59
2022-10-23T20:03:43.114Z,99076.06
2022-10-23T20:06:13.291Z,99076.13
2022-10-23T20:08:43.681Z,99076.63
2022-10-23T20:11:20.396Z,99071.47
2022-10-23T20:13:49.907Z,99074.34
2022-10-23T20:16:23.118Z,99073.03
2022-10-23T20:18:51.773Z,99073.75
2022-10-23T20:21:22.411Z,99076.56
2022-10-23T20:23:54.098Z,99076.72
2022-10-23T20:26:23.011Z,99073.91
2022-10-23T20:28:54.667Z,99068.47
2022-10-23T20:31:25.905Z,99067.31
2022-10-23T20:33:56.248Z,99062.53
2022-10-23T20:36:28.779Z,99071.31
2022-10-23T20:39:02.611Z,99063.72
2022-10-23T20:41:33.419Z,99065.91
2022-10-23T20:44:05.143Z,99063.75
2022-10-23T20:46:35.388Z,99059.94
2022-10-23T20:49:04.109Z,99058.63
2022-10-23T20:51:32.866Z,99056.34
2022-10-23T20:54:04.163Z,99054.69
2022-10-23T20:56:34.606Z,99060.84
2022-10-23T20:59:05.205Z,99055.72
2022-10-23T21:01:34.804Z,99059.34
2022-10-23T21:04:05.515Z,99068.28
2022-10-23T21:06:51.553Z,99062.34
2022-10-23T21:09:26.023Z,99062.69
2022-10-23T21:11:57.233Z,99055.25
2022-10-23T21:14:25.730Z,99058.41
2022-10-23T21:16:57.334Z,99059.41
2022-10-23T21:19:25.969Z,99058.06
2022-10-23T21:21:57.048Z,99067.34
2022-10-23T21:24:28.086Z,99055.44
2022-10-23T21:26:56.908Z,99062.72
2022-10-23T21:29:33.989Z,99055.94
2022-10-23T21:32:03.005Z,99057.13
2022-10-23T21:34:33.005Z,99063.38
2022-10-23T21:37:17.884Z,99059.91
2022-10-23T21:39:49.071Z,99055.63
2022-10-23T21:42:17.954Z,99059.41
2022-10-23T21:44:47.569Z,99061.25
2022-10-23T21:47:17.560Z,99062.56
2022-10-23T21:49:46.572Z,99063.25
2022-10-23T21:52:17.618Z,99063.41
2022-10-23T21:54:53.495Z,99064.22
2022-10-23T21:57:22.271Z,99063.09
2022-10-23T21:59:50.692Z,99065.22
2022-10-23T22:02:20.026Z,99059.94
2022-10-23T22:04:48.611Z,99069.81
2022-10-23T22:07:17.355Z,99066.53
2022-10-23T22:09:46.066Z,99062.91
2022-10-23T22:12:16.954Z,99066.50
2022-10-23T22:14:46.786Z,99060.06
2022-10-23T22:17:15.385Z,99068.81
2022-10-23T22:19:44.168Z,99067.00
2022-10-23T22:22:13.796Z,99067.66
2022-10-23T22:24:42.500Z,99063.19
2022-10-23T22:27:11.320Z,99066.34
2022-10-23T22:29:41.744Z,99063.03
2022-10-23T22:32:10.404Z,99068.16
2022-10-23T22:34:52.258Z,99070.97
2022-10-23T22:37:22.365Z,99063.34
2022-10-23T22:40:15.111Z,99070.13
2022-10-23T22:42:45.317Z,99063.03
2022-10-23T22:45:16.944Z,99070.78
2022-10-23T22:47:47.866Z,99077.59
2022-10-23T22:50:17.341Z,99073.44
2022-10-23T22:52:47.054Z,99069.66
2022-10-23T22:55:16.568Z,99073.25
2022-10-23T22:57:45.456Z,99082.53
2022-10-23T23:00:17.416Z,99074.25
2022-10-23T23:02:46.068Z,99091.78
2022-10-23T23:05:20.513Z,99082.16
2022-10-23T23:07:48.971Z,99086.28
2022-10-23T23:10:18.333Z,99087.47
2022-10-23T23:12:46.693Z,99089.75
2022-10-23T23:15:16.783Z,99090.09
2022-10-23T23:17:47.836Z,99088.41
2022-10-23T23:20:16.245Z,99089.28
2022-10-23T23:22:45.432Z,99096.22
2022-10-23T23:25:16.175Z,99095.38
2022-10-23T23:27:44.993Z,99094.06
2022-10-23T23:30:16.607Z,99097.69
2022-10-23T23:32:45.504Z,99094.34
2022-10-23T23:35:14.709Z,99090.56
2022-10-23T23:37:43.010Z,99089.38
2022-10-23T23:40:14.143Z,99093.72
2022-10-23T23:42:42.906Z,99097.31
2022-10-23T23:45:14.890Z,99086.06
2022-10-23T23:47:45.794Z,99097.31
2022-10-23T23:50:15.029Z,99098.47
2022-10-23T23:52:45.124Z,99098.00
2022-10-23T23:55:14.392Z,99095.19
2022-10-23T23:57:43.466Z,99099.66
